Time;durP1;ratioP1;P1;durP2;ratioP2;P2;SDS_P1;SDS_P2;PMS_P1;PMS_P2;Temp;Humidity;BMP_temperature;BMP_pressure;BME280_temperature;BME280_humidity;BME280_pressure;Samples;Min_cycle;Max_cycle;Signal;HPM_P1;HPM_P2
2024/02/04 00:00:03;;;;;;;24.65;13.18;;;8.00;65.30;;;2.99;100.00;96687.44;4965615;28;20054;-51
2024/02/04 00:02:29;;;;;;;24.58;13.27;;;8.00;65.30;;;3.04;100.00;96686.88;4964429;28;20038;-53
2024/02/04 00:04:55;;;;;;;24.38;13.15;;;8.00;65.30;;;3.05;100.00;96682.44;4958417;28;20080;-52
2024/02/04 00:07:21;;;;;;;24.27;13.07;;;8.00;65.40;;;3.06;100.00;96694.56;4962578;28;20026;-54
2024/02/04 00:09:47;;;;;;;19.05;11.35;;;8.00;65.40;;;3.08;100.00;96697.84;4961307;28;20031;-56
2024/02/04 00:12:13;;;;;;;22.95;11.90;;;8.00;65.40;;;3.12;100.00;96701.72;4964307;28;20033;-51
2024/02/04 00:14:39;;;;;;;22.67;12.00;;;8.10;65.50;;;3.08;100.00;96701.28;4960671;28;20101;-53
2024/02/04 00:17:04;;;;;;;19.10;11.35;;;8.10;65.50;;;3.04;100.00;96713.22;4963810;28;20717;-52
2024/02/04 00:19:30;;;;;;;20.20;11.55;;;8.10;65.40;;;3.04;100.00;96712.38;4959209;28;20610;-53
2024/02/04 00:21:56;;;;;;;17.73;11.10;;;8.10;65.40;;;3.04;100.00;96722.91;4958804;28;20161;-51
2024/02/04 00:24:22;;;;;;;20.38;12.02;;;8.10;65.40;;;2.99;100.00;96721.66;4963589;28;20477;-51
2024/02/04 00:26:48;;;;;;;21.90;11.98;;;8.10;65.50;;;3.03;100.00;96719.47;4961694;28;20022;-53
2024/02/04 00:29:14;;;;;;;19.52;11.57;;;8.10;65.50;;;3.03;100.00;96735.25;4965529;28;20045;-53
2024/02/04 00:31:41;;;;;;;18.63;11.05;;;8.10;65.50;;;3.03;100.00;96735.25;4955553;28;20553;-51
2024/02/04 00:34:06;;;;;;;20.05;9.95;;;8.00;65.50;;;3.04;100.00;96742.16;4963837;28;20054;-53
2024/02/04 00:36:32;;;;;;;20.27;10.88;;;8.10;65.60;;;3.09;100.00;96736.31;4969105;28;20057;-56
2024/02/04 00:38:58;;;;;;;19.20;11.15;;;8.10;65.60;;;3.07;100.00;96727.78;4961252;28;20166;-53
2024/02/04 00:41:25;;;;;;;14.40;8.57;;;8.10;65.60;;;3.03;100.00;96731.81;4962208;28;20025;-55
2024/02/04 00:43:51;;;;;;;17.23;10.55;;;8.10;65.60;;;2.99;100.00;96729.56;4969226;28;20034;-56
2024/02/04 00:46:17;;;;;;;16.15;10.20;;;8.10;65.50;;;3.01;100.00;96734.66;4963372;28;20111;-55
2024/02/04 00:48:42;;;;;;;17.73;10.60;;;8.10;65.60;;;3.04;100.00;96738.69;4956809;28;20026;-53
2024/02/04 00:51:09;;;;;;;14.60;9.68;;;8.00;65.60;;;3.04;100.00;96742.16;4965008;28;20029;-55
2024/02/04 00:53:35;;;;;;;13.25;8.32;;;8.00;65.70;;;3.01;100.00;96746.00;4960713;28;20035;-54
2024/02/04 00:56:05;;;;;;;14.00;8.80;;;8.00;65.80;;;3.05;100.00;96745.63;4960730;28;20232;-56
2024/02/04 00:58:31;;;;;;;12.98;8.13;;;8.00;65.90;;;3.05;100.00;96748.25;4962704;28;20392;-57
2024/02/04 01:00:57;;;;;;;13.77;8.50;;;8.00;65.90;;;3.08;100.00;96756.56;4974665;23;20083;-47
2024/02/04 01:03:23;;;;;;;11.77;7.50;;;8.00;65.90;;;3.13;100.00;96758.63;4966786;28;20576;-51
2024/02/04 01:05:50;;;;;;;11.43;7.65;;;8.10;66.00;;;3.14;100.00;96761.09;4970761;28;20022;-52
2024/02/04 01:08:16;;;;;;;12.82;8.20;;;8.10;66.10;;;3.17;100.00;96762.53;4969115;28;20080;-48
2024/02/04 01:10:42;;;;;;;11.45;7.00;;;8.10;66.10;;;3.15;100.00;96751.38;4960001;28;20544;-51
2024/02/04 01:13:08;;;;;;;12.30;7.40;;;8.10;66.10;;;3.13;100.00;96745.47;4951441;28;20473;-49
2024/02/04 01:15:34;;;;;;;11.20;7.03;;;8.10;66.00;;;3.07;100.00;96741.78;4935461;28;20470;-47
2024/02/04 01:18:00;;;;;;;11.27;7.07;;;8.20;66.00;;;3.09;100.00;96750.28;4947433;28;20038;-47
2024/02/04 01:20:26;;;;;;;10.60;7.13;;;8.10;65.90;;;3.08;100.00;96751.31;4946137;28;20050;-50
2024/02/04 01:22:52;;;;;;;12.82;7.22;;;8.20;66.00;;;3.11;100.00;96745.66;4944790;28;20058;-54
2024/02/04 01:25:18;;;;;;;11.07;7.15;;;8.10;66.00;;;3.12;100.00;96741.22;4944831;28;20105;-48
2024/02/04 01:27:44;;;;;;;10.38;6.50;;;8.10;66.00;;;3.09;100.00;96734.50;4939530;28;20047;-51
2024/02/04 01:30:11;;;;;;;8.82;6.30;;;8.10;66.00;;;3.07;100.00;96722.53;4943029;28;20106;-52
2024/02/04 01:32:36;;;;;;;9.57;6.57;;;8.20;66.10;;;3.09;100.00;96713.44;4942681;28;20110;-54
2024/02/04 01:35:03;;;;;;;7.47;5.68;;;8.10;66.00;;;3.06;100.00;96713.81;4948045;28;20173;-48
2024/02/04 01:37:29;;;;;;;7.75;5.70;;;8.10;66.20;;;3.11;100.00;96724.59;4944099;28;20025;-47
2024/02/04 01:39:54;;;;;;;7.80;5.40;;;8.10;66.30;;;3.10;100.00;96724.78;4944253;28;20019;-48
2024/02/04 01:42:21;;;;;;;6.68;4.88;;;8.10;66.30;;;3.12;100.00;96699.91;4945634;28;20031;-49
2024/02/04 01:44:47;;;;;;;5.80;4.35;;;8.10;66.40;;;3.13;100.00;96690.16;4942722;28;20027;-47
2024/02/04 01:47:13;;;;;;;5.95;4.10;;;8.10;66.40;;;3.12;100.00;96699.09;4945098;28;20049;-48
2024/02/04 01:49:39;;;;;;;6.47;4.10;;;8.10;66.50;;;3.10;100.00;96690.56;4936329;28;20027;-47
2024/02/04 01:52:08;;;;;;;5.18;3.60;;;8.10;66.60;;;3.12;100.00;96670.94;4944200;28;20055;-47
2024/02/04 01:54:39;;;;;;;5.80;3.78;;;8.10;66.70;;;3.14;100.00;96674.19;4938487;28;20023;-49
2024/02/04 01:57:07;;;;;;;5.72;4.10;;;8.10;66.70;;;3.11;100.00;96681.66;4936221;28;20054;-47
2024/02/04 01:59:33;;;;;;;5.78;3.83;;;8.10;66.90;;;3.09;100.00;96673.94;4943486;28;20035;-50
2024/02/04 02:02:02;;;;;;;5.05;3.55;;;8.10;67.00;;;3.10;100.00;96678.19;4945122;28;20448;-47
2024/02/04 02:04:28;;;;;;;6.38;4.13;;;8.10;67.00;;;3.18;100.00;96685.97;4960162;28;20034;-49
2024/02/04 02:06:55;;;;;;;6.13;3.42;;;8.10;67.00;;;3.16;100.00;96682.69;4935378;28;20405;-51
2024/02/04 02:09:22;;;;;;;5.07;3.30;;;8.10;67.10;;;3.14;100.00;96697.09;4940726;28;20035;-52
2024/02/04 02:12:15;;;;;;;4.30;3.38;;;8.10;67.00;;;3.24;100.00;96705.47;4939929;28;20450;-47
2024/02/04 02:14:54;;;;;;;;;;;8.10;67.10;;;3.31;100.00;96697.59;4936334;28;20568;-53
2024/02/04 02:17:41;;;;;;;4.53;3.50;;;8.10;66.70;;;3.32;100.00;96686.91;4960811;28;19933;-52
2024/02/04 02:20:31;;;;;;;4.75;3.42;;;8.10;67.00;;;3.34;100.00;96686.69;4935688;28;20030;-54
2024/02/04 02:23:14;;;;;;;4.40;3.20;;;8.20;67.00;;;3.35;100.00;96688.31;4940839;28;20125;-48
2024/02/04 02:25:42;;;;;;;4.70;3.20;;;8.20;66.90;;;3.35;100.00;96683.84;4954884;28;20035;-55
2024/02/04 02:28:07;;;;;;;5.35;3.47;;;8.20;66.90;;;3.35;100.00;96697.03;4939651;28;20053;-51
2024/02/04 02:30:33;;;;;;;4.70;3.35;;;8.30;66.90;;;3.35;100.00;96698.84;4944384;28;20054;-47
2024/02/04 02:33:00;;;;;;;5.57;3.67;;;8.30;66.90;;;3.41;100.00;96709.44;4936537;28;20022;-49
2024/02/04 02:35:26;;;;;;;4.32;3.22;;;8.30;66.90;;;3.43;100.00;96710.06;4961732;28;20493;-47
2024/02/04 02:38:38;;;;;;;5.78;4.07;;;8.30;66.90;;;3.40;100.00;96714.91;4937866;28;20137;-51
2024/02/04 02:41:09;;;;;;;5.57;3.42;;;8.30;66.80;;;3.44;100.00;96709.03;4951358;28;20478;-49
2024/02/04 02:43:40;;;;;;;4.03;3.03;;;8.30;66.90;;;3.46;100.00;96691.25;4942223;28;20449;-47
2024/02/04 02:46:07;;;;;;;4.18;3.00;;;8.30;67.00;;;3.44;100.00;96682.69;4939553;28;20054;-47
2024/02/04 02:48:34;;;;;;;4.25;3.30;;;8.30;66.90;;;3.40;100.00;96670.94;4943571;28;20023;-49
2024/02/04 02:50:59;;;;;;;5.20;4.20;;;8.30;66.90;;;3.41;100.00;96675.19;4932451;28;20410;-51
2024/02/04 02:53:25;;;;;;;4.50;2.97;;;8.30;66.90;;;3.42;100.00;96676.84;4948864;28;20050;-48
2024/02/04 02:55:51;;;;;;;4.10;2.95;;;8.40;66.90;;;3.43;100.00;96677.63;4947565;28;20826;-52
2024/02/04 02:58:17;;;;;;;4.63;3.35;;;8.40;66.80;;;3.46;100.00;96687.78;4937857;28;20035;-50
2024/02/04 03:00:45;;;;;;;7.47;3.42;;;8.40;66.90;;;3.42;100.00;96674.19;4944819;28;20046;-49
2024/02/04 03:03:11;;;;;;;4.75;3.13;;;8.40;66.90;;;3.41;100.00;96682.28;4961794;28;20026;-47
2024/02/04 03:05:37;;;;;;;3.70;2.92;;;8.30;66.90;;;3.41;100.00;96677.00;4939047;28;20046;-49
2024/02/04 03:08:04;;;;;;;5.75;3.63;;;8.40;66.90;;;3.45;100.00;96684.34;4944451;28;20500;-48
2024/02/04 03:10:30;;;;;;;4.75;3.63;;;8.40;67.00;;;3.43;100.00;96675.00;4926010;29;20089;-50
2024/02/04 03:12:56;;;;;;;4.43;3.15;;;8.40;67.00;;;3.36;100.00;96674.97;4944722;28;20020;-47
2024/02/04 03:15:22;;;;;;;6.05;3.95;;;8.30;66.90;;;3.38;100.00;96674.75;4944427;28;20476;-50
2024/02/04 03:17:48;;;;;;;6.05;3.58;;;8.40;67.00;;;3.36;100.00;96688.13;4942868;28;20031;-49
2024/02/04 03:20:14;;;;;;;5.65;3.95;;;8.30;67.00;;;3.42;100.00;96702.38;4946682;28;20033;-51
2024/02/04 03:22:39;;;;;;;5.03;3.50;;;8.30;67.00;;;3.45;100.00;96704.63;4964833;28;20121;-52
2024/02/04 03:25:06;;;;;;;5.40;4.07;;;8.30;67.10;;;3.44;100.00;96714.31;4943834;28;20030;-48
2024/02/04 03:27:32;;;;;;;7.28;4.47;;;8.30;67.00;;;3.42;100.00;96703.19;4948470;28;20031;-52
2024/02/04 03:29:58;;;;;;;6.97;4.35;;;8.30;67.00;;;3.45;100.00;96705.44;4950793;28;20026;-54
2024/02/04 03:32:24;;;;;;;7.50;4.35;;;8.30;67.00;;;3.43;100.00;96710.06;4949445;28;20503;-50
2024/02/04 03:34:49;;;;;;;8.98;4.93;;;8.30;66.90;;;3.39;100.00;96703.56;4951122;28;20088;-52
2024/02/04 03:37:15;;;;;;;8.38;5.65;;;8.40;67.00;;;3.39;100.00;96700.13;4941832;28;20022;-50
2024/02/04 03:39:41;;;;;;;11.20;5.95;;;8.30;66.90;;;3.40;100.00;96707.00;4949054;28;20484;-51
2024/02/04 03:42:07;;;;;;;8.55;6.28;;;8.30;66.90;;;3.37;100.00;96705.56;4948136;28;20428;-48
2024/02/04 03:44:32;;;;;;;10.48;6.07;;;8.30;67.00;;;3.40;100.00;96712.28;4949894;28;20194;-47
2024/02/04 03:46:58;;;;;;;9.18;6.07;;;8.30;67.00;;;3.36;100.00;96711.84;4946804;28;20026;-52
2024/02/04 03:49:24;;;;;;;8.05;5.68;;;8.30;67.00;;;3.37;100.00;96715.28;4944598;28;20482;-53
2024/02/04 03:51:50;;;;;;;7.07;5.50;;;8.30;67.10;;;3.29;100.00;96708.34;4947110;28;20069;-51
2024/02/04 03:54:16;;;;;;;7.95;4.97;;;8.30;67.20;;;3.31;100.00;96713.41;4949752;28;20022;-47
2024/02/04 03:56:42;;;;;;;8.65;5.13;;;8.30;67.30;;;3.27;100.00;96718.25;4949181;28;20073;-52
2024/02/04 03:59:10;;;;;;;7.05;4.65;;;8.30;67.40;;;3.25;100.00;96718.44;4949334;28;20567;-50
2024/02/04 04:01:36;;;;;;;5.38;4.13;;;8.20;67.50;;;3.27;100.00;96720.88;4948963;28;20042;-51
2024/02/04 04:04:02;;;;;;;6.95;4.28;;;8.30;67.50;;;3.25;100.00;96736.06;4947243;28;20393;-54
2024/02/04 04:06:28;;;;;;;7.10;3.92;;;8.20;67.50;;;3.16;100.00;96738.00;4942846;28;20034;-52
2024/02/04 04:08:54;;;;;;;4.93;3.30;;;8.20;67.70;;;3.15;100.00;96751.38;4946995;28;20118;-48
2024/02/04 04:11:20;;;;;;;6.43;3.60;;;8.20;67.80;;;3.16;100.00;96738.00;4941141;28;20482;-51
2024/02/04 04:13:46;;;;;;;4.57;3.10;;;8.20;67.80;;;3.18;100.00;96728.09;4957343;28;20022;-51
2024/02/04 04:16:12;;;;;;;4.10;2.90;;;8.20;67.90;;;3.19;100.00;96736.81;4949163;28;20773;-51
2024/02/04 04:18:38;;;;;;;8.40;4.38;;;8.20;67.80;;;3.21;100.00;96740.88;4944401;28;20062;-48
2024/02/04 04:21:04;;;;;;;5.57;3.92;;;8.20;67.80;;;3.22;100.00;96745.13;4945564;28;20455;-53
2024/02/04 04:23:30;;;;;;;6.10;4.15;;;8.20;67.80;;;3.21;100.00;96748.78;4941839;28;20058;-50
2024/02/04 04:25:56;;;;;;;7.15;4.55;;;8.20;67.90;;;3.29;100.00;96744.38;4947388;28;20105;-49
2024/02/04 04:28:22;;;;;;;8.90;5.20;;;8.20;67.80;;;3.33;100.00;96746.47;4946559;28;20444;-47
2024/02/04 04:30:48;;;;;;;7.25;5.05;;;8.20;67.80;;;3.31;100.00;96750.28;4948040;28;20456;-51
2024/02/04 04:33:13;;;;;;;8.35;5.00;;;8.20;67.90;;;3.32;100.00;96746.63;4943303;28;20022;-49
2024/02/04 04:35:39;;;;;;;9.60;5.72;;;8.20;67.80;;;3.32;100.00;96739.56;4947029;28;20035;-52
2024/02/04 04:38:05;;;;;;;9.00;5.80;;;8.20;67.80;;;3.31;100.00;96742.38;4942223;28;20026;-49
2024/02/04 04:40:31;;;;;;;7.80;5.90;;;8.30;67.90;;;3.31;100.00;96742.38;4946122;28;20070;-50
2024/02/04 04:42:57;;;;;;;9.65;6.22;;;8.30;67.90;;;3.32;100.00;96751.91;4949083;28;20023;-49
2024/02/04 04:45:23;;;;;;;10.80;6.35;;;8.30;67.90;;;3.36;100.00;96742.63;4943931;28;20162;-56
2024/02/04 04:47:49;;;;;;;11.88;7.82;;;8.30;67.90;;;3.32;100.00;96739.56;4948031;28;20468;-52
2024/02/04 04:50:15;;;;;;;13.25;7.97;;;8.30;68.30;;;3.31;100.00;96737.94;4939331;28;20451;-54
2024/02/04 04:52:41;;;;;;;13.63;8.25;;;8.30;67.80;;;3.32;100.00;96729.03;4949653;28;20018;-53
2024/02/04 04:55:08;;;;;;;15.23;8.50;;;8.30;67.80;;;3.36;100.00;96735.53;4949726;28;20081;-49
2024/02/04 04:57:34;;;;;;;13.32;8.27;;;8.30;67.80;;;3.35;100.00;96735.72;4945559;28;20467;-49
2024/02/04 05:00:06;;;;;;;14.05;9.27;;;8.30;67.80;;;3.34;100.00;96728.84;4946138;28;20107;-53
2024/02/04 05:02:33;;;;;;;12.93;8.37;;;8.30;67.90;;;3.33;100.00;96733.28;4945963;28;20078;-53
2024/02/04 05:04:59;;;;;;;15.95;9.38;;;8.20;67.80;;;3.33;100.00;96735.94;4950076;28;20356;-50
2024/02/04 05:07:25;;;;;;;18.75;9.88;;;8.30;67.90;;;3.31;100.00;96740.56;4945054;28;20043;-49
2024/02/04 05:09:51;;;;;;;15.80;9.75;;;8.20;67.80;;;3.25;100.00;96728.16;4944037;28;20022;-50
2024/02/04 05:12:18;;;;;;;16.90;10.18;;;8.20;67.80;;;3.27;100.00;96730.59;4959084;28;20098;-50
2024/02/04 05:14:43;;;;;;;18.42;9.85;;;8.20;67.80;;;3.23;100.00;96738.09;4948994;28;20030;-53
2024/02/04 05:17:09;;;;;;;15.10;10.10;;;8.20;67.80;;;3.23;100.00;96741.53;4954279;28;20033;-50
2024/02/04 05:19:36;;;;;;;18.30;10.82;;;8.20;67.80;;;3.28;100.00;96735.66;4942573;28;20058;-49
2024/02/04 05:22:02;;;;;;;19.45;10.52;;;8.20;67.90;;;3.28;100.00;96733.03;4948262;28;20577;-52
2024/02/04 05:24:29;;;;;;;17.42;9.98;;;8.20;67.90;;;3.27;100.00;96727.97;4939849;28;20059;-51
2024/02/04 05:26:55;;;;;;;16.52;10.25;;;8.20;67.90;;;3.28;100.00;96727.78;4948539;28;20027;-51
2024/02/04 05:29:20;;;;;;;15.27;10.07;;;8.20;67.90;;;3.30;100.00;96725.78;4947164;28;20031;-53
2024/02/04 05:31:46;;;;;;;18.88;10.65;;;8.20;67.90;;;3.32;100.00;96726.41;4943912;28;20094;-50
2024/02/04 05:34:12;;;;;;;18.15;10.57;;;8.20;67.80;;;3.30;100.00;96732.88;4946759;28;20031;-49
2024/02/04 05:36:38;;;;;;;19.60;10.48;;;8.20;67.80;;;3.30;100.00;96738.13;4953072;28;20105;-52
2024/02/04 05:39:30;;;;;;;16.75;9.82;;;8.20;67.80;;;3.31;100.00;96719.50;4977568;28;20161;-52
2024/02/04 05:41:56;;;;;;;18.48;11.32;;;8.30;67.90;;;3.31;100.00;96716.03;4945817;28;20035;-51
2024/02/04 05:44:22;;;;;;;17.80;11.05;;;8.20;67.80;;;3.29;100.00;96715.41;4953486;28;20027;-57
2024/02/04 05:46:48;;;;;;;16.52;10.93;;;8.20;67.80;;;3.29;100.00;96724.16;4958135;28;20018;-54
2024/02/04 05:49:13;;;;;;;19.48;11.65;;;8.20;67.80;;;3.23;100.00;96727.53;4951988;28;20034;-49
2024/02/04 05:51:41;;;;;;;17.83;10.82;;;8.20;67.70;;;3.28;100.00;96719.88;4955497;28;20485;-54
2024/02/04 05:54:08;;;;;;;20.67;12.02;;;8.20;67.80;;;3.25;100.00;96723.69;4953828;28;20408;-52
2024/02/04 05:56:35;;;;;;;20.52;12.43;;;8.20;67.80;;;3.20;100.00;96723.47;4949807;28;22002;-49
2024/02/04 05:59:00;;;;;;;20.13;11.95;;;8.20;67.80;;;3.21;100.00;96732.19;4964024;28;20408;-51
2024/02/04 06:01:26;;;;;;;22.73;11.95;;;8.20;67.80;;;3.19;100.00;96726.28;4957234;28;20038;-53
2024/02/04 06:03:52;;;;;;;21.60;12.70;;;8.10;67.70;;;3.13;100.00;96725.22;4950653;28;20493;-53
2024/02/04 06:06:20;;;;;;;23.70;13.65;;;8.10;67.80;;;3.12;100.00;96728.06;4960196;28;20022;-49
2024/02/04 06:08:47;;;;;;;24.27;13.05;;;8.10;67.70;;;3.12;100.00;96730.69;4955325;28;20022;-52
2024/02/04 06:11:13;;;;;;;21.70;13.40;;;8.00;67.70;;;3.06;100.00;96739.34;4955725;28;20034;-52
2024/02/04 06:13:44;;;;;;;22.35;13.05;;;8.00;67.80;;;3.07;100.00;96749.69;4959502;28;20034;-49
2024/02/04 06:16:11;;;;;;;25.63;13.48;;;8.00;67.80;;;3.06;100.00;96747.22;4950695;28;20034;-52
2024/02/04 06:18:39;;;;;;;22.75;13.30;;;7.90;67.90;;;3.03;100.00;96758.94;4956887;28;20026;-52
2024/02/04 06:21:06;;;;;;;21.13;12.60;;;7.90;67.80;;;3.05;100.00;96762.22;4947652;28;20398;-50
2024/02/04 06:23:33;;;;;;;23.90;13.73;;;7.90;67.90;;;3.06;100.00;96770.94;4951345;28;20026;-49
2024/02/04 06:26:01;;;;;;;27.15;15.70;;;7.90;67.90;;;3.05;100.00;96779.84;4961643;28;20081;-52
2024/02/04 06:28:27;;;;;;;24.65;13.50;;;7.90;68.00;;;2.99;100.00;96774.31;4954282;28;20565;-53
2024/02/04 06:30:54;;;;;;;24.02;13.32;;;7.90;68.00;;;3.00;100.00;96761.97;4958336;28;20110;-56
2024/02/04 06:33:20;;;;;;;26.02;14.05;;;7.90;68.00;;;3.04;100.00;96754.50;4956971;28;20048;-51
2024/02/04 06:35:46;;;;;;;24.40;13.77;;;7.90;68.00;;;3.01;100.00;96751.25;4955079;28;20019;-54
2024/02/04 06:38:12;;;;;;;20.95;12.48;;;7.80;67.90;;;2.98;100.00;96761.34;4950569;28;20021;-52
2024/02/04 06:40:38;;;;;;;23.08;12.43;;;7.90;67.80;;;2.95;100.00;96762.53;4953186;28;20022;-58
2024/02/04 06:43:04;;;;;;;22.55;12.85;;;7.90;67.70;;;2.92;100.00;96754.19;4956502;28;20022;-49
2024/02/04 06:45:29;;;;;;;25.05;13.45;;;7.80;67.70;;;2.87;100.00;96765.28;4965954;28;20034;-50
2024/02/04 06:47:55;;;;;;;23.02;13.63;;;7.80;67.80;;;2.84;100.00;96760.38;4958369;28;20023;-55
2024/02/04 06:50:21;;;;;;;23.38;13.43;;;7.70;67.70;;;2.77;100.00;96759.50;4950619;28;20034;-51
2024/02/04 06:52:47;;;;;;;20.00;11.52;;;7.70;67.80;;;2.72;100.00;96762.69;4954456;28;20054;-47
2024/02/04 06:55:13;;;;;;;23.55;12.18;;;7.70;67.80;;;2.68;100.00;96761.44;4961886;28;20026;-47
2024/02/04 06:57:40;;;;;;;21.20;12.13;;;7.60;67.80;;;2.66;100.00;96766.06;4952172;28;20026;-50
2024/02/04 07:00:08;;;;;;;19.42;11.40;;;7.60;67.70;;;2.60;100.00;96763.34;4949238;28;20382;-52
2024/02/04 07:02:35;;;;;;;18.48;10.50;;;7.60;67.80;;;2.53;100.00;96758.03;4952968;28;20445;-53
2024/02/04 07:05:01;;;;;;;22.67;12.23;;;7.50;67.80;;;2.49;100.00;96749.69;4956013;28;20030;-52
2024/02/04 07:07:26;;;;;;;22.92;11.80;;;7.50;67.80;;;2.45;100.00;96745.81;4948937;28;20018;-49
2024/02/04 07:09:52;;;;;;;21.85;11.50;;;7.50;67.80;;;2.39;100.00;96745.72;4953926;28;20027;-53
2024/02/04 07:12:18;;;;;;;22.00;11.07;;;7.40;67.80;;;2.39;100.00;96753.63;4958655;28;20031;-51
2024/02/04 07:14:44;;;;;;;16.65;9.75;;;7.50;68.00;;;2.41;100.00;96757.69;4957306;28;20050;-52
2024/02/04 07:17:13;;;;;;;19.25;10.05;;;7.40;68.00;;;2.37;100.00;96745.09;4945756;28;20038;-53
2024/02/04 07:19:39;;;;;;;17.73;9.85;;;7.40;68.10;;;2.36;100.00;96752.16;4948658;28;20177;-54
2024/02/04 07:22:05;;;;;;;17.58;9.75;;;7.40;68.10;;;2.39;100.00;96751.00;4953800;28;20042;-49
2024/02/04 07:24:31;;;;;;;17.10;8.77;;;7.40;68.20;;;2.37;100.00;96755.59;4956155;28;20072;-50
2024/02/04 07:26:58;;;;;;;16.73;8.57;;;7.50;68.30;;;2.38;100.00;96757.22;4951397;28;20105;-51
2024/02/04 07:29:23;;;;;;;18.88;9.80;;;7.40;68.30;;;2.37;100.00;96761.69;4959741;28;20424;-55
2024/02/04 07:31:49;;;;;;;17.35;10.13;;;7.40;68.30;;;2.36;100.00;96767.13;4954796;28;20027;-49
2024/02/04 07:34:15;;;;;;;18.88;10.68;;;7.40;68.20;;;2.36;100.00;96772.41;4962061;28;20030;-49
2024/02/04 07:36:41;;;;;;;18.40;10.35;;;7.50;68.20;;;2.35;100.00;96776.84;4948655;28;20035;-51
2024/02/04 07:39:07;;;;;;;19.38;10.43;;;7.50;68.20;;;2.45;100.00;96787.06;4961749;28;20030;-50
2024/02/04 07:41:33;;;;;;;20.90;11.43;;;7.50;68.20;;;2.49;100.00;96791.78;4972739;28;20444;-49
2024/02/04 07:43:59;;;;;;;20.50;10.93;;;7.60;68.30;;;2.57;100.00;96784.75;4962923;28;20045;-52
2024/02/04 07:46:25;;;;;;;23.77;11.60;;;7.70;68.40;;;2.63;100.00;96773.50;4960074;28;20018;-53
2024/02/04 07:48:50;;;;;;;26.25;12.45;;;7.70;68.40;;;2.68;100.00;96771.97;4954800;28;20410;-54
2024/02/04 07:51:16;;;;;;;30.05;12.65;;;7.90;68.50;;;2.75;100.00;96756.22;4955420;28;20034;-52
2024/02/04 07:53:42;;;;;;;25.58;12.95;;;7.90;68.40;;;2.82;100.00;96767.66;4974233;28;20039;-51
2024/02/04 07:56:08;;;;;;;25.15;12.75;;;8.10;68.40;;;2.82;100.00;96762.41;4962925;28;20034;-49
2024/02/04 07:58:34;;;;;;;20.88;11.73;;;8.10;68.30;;;2.92;100.00;96762.91;4953899;28;20068;-49
2024/02/04 08:01:00;;;;;;;20.23;11.65;;;8.20;68.20;;;3.01;100.00;96750.44;4959924;28;20046;-50
2024/02/04 08:03:25;;;;;;;22.92;12.45;;;8.30;68.10;;;3.10;100.00;96754.56;4959234;28;20030;-53
2024/02/04 08:05:51;;;;;;;21.92;12.68;;;8.40;68.70;;;3.16;100.00;96753.78;4973711;28;20030;-54
2024/02/04 08:08:17;;;;;;;22.70;13.20;;;8.60;68.00;;;3.15;100.00;96762.72;4952509;28;20041;-57
2024/02/04 08:10:43;;;;;;;25.45;13.90;;;8.60;67.70;;;3.18;100.00;96764.16;4954955;28;20366;-53
2024/02/04 08:13:09;;;;;;;27.27;14.27;;;8.70;67.60;;;3.15;100.00;96767.16;4965272;28;20029;-51
2024/02/04 08:15:35;;;;;;;28.83;13.55;;;8.70;67.40;;;3.19;100.00;96774.47;4953181;28;20027;-52
2024/02/04 08:18:01;;;;;;;25.70;14.63;;;8.70;67.30;;;3.23;100.00;96774.94;4964302;28;20025;-56
2024/02/04 08:20:27;;;;;;;25.08;14.02;;;8.70;67.30;;;3.31;100.00;96766.09;4947556;28;20084;-51
2024/02/04 08:22:54;;;;;;;23.02;13.75;;;8.80;67.20;;;3.34;100.00;96773.59;4963649;28;20019;-55
2024/02/04 08:25:20;;;;;;;26.08;14.23;;;8.80;67.20;;;3.35;100.00;96785.75;4962565;28;20030;-50
2024/02/04 08:27:46;;;;;;;24.33;14.10;;;8.80;67.10;;;3.31;100.00;96785.34;4951049;28;20489;-51
2024/02/04 08:30:13;;;;;;;26.48;13.73;;;8.90;67.00;;;3.29;100.00;96774.19;4961086;28;20061;-50
2024/02/04 08:32:39;;;;;;;22.17;12.90;;;8.80;66.90;;;3.32;100.00;96767.72;4950064;28;20027;-57
2024/02/04 08:35:06;;;;;;;25.02;13.45;;;8.80;66.90;;;3.36;100.00;96764.53;4960568;28;20040;-49
2024/02/04 08:37:33;;;;;;;25.08;14.05;;;8.90;67.10;;;3.34;100.00;96757.81;4958532;28;20042;-55
2024/02/04 08:39:59;;;;;;;24.83;12.75;;;8.90;67.00;;;3.37;100.00;96747.69;4954642;28;20048;-51
2024/02/04 08:42:25;;;;;;;22.10;12.13;;;8.90;66.90;;;3.40;100.00;96739.41;4974049;28;20027;-50
2024/02/04 08:44:51;;;;;;;22.92;12.07;;;8.90;66.90;;;3.48;100.00;96744.56;4957903;28;20358;-51
2024/02/04 08:47:17;;;;;;;22.15;12.30;;;9.00;66.90;;;3.54;100.00;96743.00;4956900;28;20037;-53
2024/02/04 08:49:43;;;;;;;19.48;11.95;;;9.10;67.00;;;3.62;100.00;96736.75;4989392;23;20050;-51
2024/02/04 08:52:09;;;;;;;19.13;11.20;;;9.10;66.80;;;3.57;100.00;96736.50;4959929;28;20069;-53
2024/02/04 08:54:35;;;;;;;19.73;11.82;;;9.20;66.80;;;3.62;100.00;96742.81;4961013;28;20026;-55
2024/02/04 08:57:01;;;;;;;21.42;12.13;;;9.20;66.70;;;3.71;100.00;96741.66;4967061;28;20026;-54
2024/02/04 08:59:27;;;;;;;21.20;12.20;;;9.30;66.70;;;3.79;100.00;96747.78;4957079;28;20031;-58
2024/02/04 09:01:53;;;;;;;20.88;11.35;;;9.30;66.60;;;3.92;100.00;96745.25;4967392;28;20053;-55
2024/02/04 09:04:19;;;;;;;17.35;9.90;;;9.40;66.60;;;3.97;100.00;96750.75;4955878;28;20089;-56
2024/02/04 09:06:45;;;;;;;19.42;11.35;;;9.50;66.60;;;3.92;100.00;96753.97;4965890;28;20393;-55
2024/02/04 09:09:10;;;;;;;19.08;11.13;;;9.70;66.30;;;4.10;100.00;96748.16;4963302;28;20113;-55
2024/02/04 09:11:36;;;;;;;23.55;11.20;;;9.80;66.10;;;4.24;100.00;96749.06;4961694;28;20473;-52
2024/02/04 09:14:04;;;;;;;19.13;11.05;;;9.90;66.00;;;4.31;100.00;96752.53;4967708;28;20044;-53
2024/02/04 09:16:30;;;;;;;18.02;10.73;;;10.00;65.90;;;4.45;100.00;96747.31;4959509;28;20440;-55
2024/02/04 09:18:56;;;;;;;18.33;11.93;;;10.10;65.80;;;4.54;100.00;96744.31;4959597;28;20088;-51
2024/02/04 09:21:22;;;;;;;18.15;11.35;;;10.20;65.70;;;4.56;100.00;96742.28;4966411;28;20042;-54
2024/02/04 09:23:48;;;;;;;17.50;10.85;;;10.30;65.50;;;4.60;100.00;96747.97;4965720;28;20036;-56
2024/02/04 09:26:14;;;;;;;18.30;10.95;;;10.30;65.20;;;4.63;100.00;96745.75;4968977;28;20029;-54
2024/02/04 09:28:40;;;;;;;19.80;11.48;;;10.30;64.90;;;4.73;100.00;96753.31;4964105;28;20030;-56
2024/02/04 09:31:09;;;;;;;19.45;10.98;;;10.40;64.80;;;4.83;100.00;96743.19;4965475;28;20096;-51
2024/02/04 09:33:37;;;;;;;15.05;9.88;;;10.60;64.80;;;4.83;100.00;96735.25;4964550;28;20046;-51
2024/02/04 09:36:04;;;;;;;16.52;10.63;;;10.70;64.50;;;4.81;100.00;96737.28;4967835;28;20227;-53
2024/02/04 09:38:30;;;;;;;16.33;10.55;;;10.80;64.20;;;4.86;100.00;96739.34;4964584;28;20022;-56
2024/02/04 09:40:56;;;;;;;19.17;11.43;;;10.80;64.00;;;4.95;100.00;96732.00;4967783;28;20037;-55
2024/02/04 09:43:24;;;;;;;18.50;10.77;;;10.90;63.80;;;5.04;100.00;96739.53;4965836;28;20027;-54
2024/02/04 09:45:51;;;;;;;14.75;10.05;;;11.00;63.80;;;5.10;100.00;96740.56;4966681;28;20315;-55
2024/02/04 09:48:20;;;;;;;13.02;8.90;;;11.10;63.60;;;5.15;100.00;96738.16;4967078;28;20444;-56
2024/02/04 09:50:47;;;;;;;13.20;8.68;;;11.20;63.50;;;5.33;100.00;96746.31;4963597;28;20137;-58
2024/02/04 09:53:19;;;;;;;10.57;6.60;;;11.30;63.50;;;5.52;100.00;96749.97;4963768;28;20133;-54
2024/02/04 09:55:50;;;;;;;8.20;5.72;;;11.60;63.30;;;5.64;100.00;96742.22;4967898;28;20034;-56
2024/02/04 09:58:16;;;;;;;7.97;4.90;;;11.90;62.90;;;5.99;100.00;96742.81;4965107;28;20030;-52
2024/02/04 10:00:47;;;;;;;5.45;3.60;;;12.30;62.50;;;6.11;97.72;96729.75;4968039;28;20575;-55
2024/02/04 10:03:12;;;;;;;7.03;4.07;;;12.60;61.80;;;6.36;95.32;96735.19;4962923;28;20167;-57
2024/02/04 10:05:38;;;;;;;6.32;3.80;;;12.80;61.20;;;6.67;94.83;96741.53;4967220;28;20598;-54
2024/02/04 10:08:05;;;;;;;5.03;3.90;;;13.10;60.60;;;6.78;92.86;96748.03;4966706;28;20164;-53
2024/02/04 10:10:32;;;;;;;5.03;3.88;;;13.40;60.00;;;7.07;92.00;96741.31;4965272;28;20030;-54
2024/02/04 10:12:58;;;;;;;5.15;3.85;;;13.70;59.60;;;7.18;88.84;96738.81;4966800;28;20097;-53
2024/02/04 10:15:24;;;;;;;4.68;3.15;;;14.10;58.80;;;7.55;86.61;96736.28;4959330;28;20035;-51